Time,TemperatureF,DewpointF,PressureIn,WindDirection,WindDirectionDegrees,WindSpeedMPH,WindSpeedGustMPH,Humidity,HourlyPrecipIn,Conditions,Clouds,dailyrainin,SoftwareType,DateUTC
2013-05-09 00:03:00,62.0,56.0,29.94,NW,315,2.0,5.0,81,0.00,,,0.04,,2013-05-09 04:03:00,
2013-05-09 00:13:00,62.0,56.0,29.94,NW,315,2.0,5.0,81,0.00,,,0.04,,2013-05-09 04:13:00,
2013-05-09 00:23:00,61.0,56.0,29.94,WNW,284,1.0,4.0,84,0.00,,,0.04,,2013-05-09 04:23:00,
2013-05-09 00:33:00,60.0,55.0,29.93,WNW,284,0.0,2.0,83,0.00,,,0.04,,2013-05-09 04:33:00,
2013-05-09 00:43:00,60.0,55.0,29.93,WNW,284,0.0,2.0,83,0.00,,,0.04,,2013-05-09 04:43:00,
2013-05-09 00:52:00,60.0,55.0,29.93,NE,47,0.0,1.0,84,0.00,,,0.04,,2013-05-09 04:52:00,
2013-05-09 01:02:00,60.0,55.0,29.93,West,281,0.0,3.0,84,0.00,,,0.04,,2013-05-09 05:02:00,
2013-05-09 01:12:00,60.0,55.0,29.93,West,281,0.0,3.0,84,0.00,,,0.04,,2013-05-09 05:12:00,
2013-05-09 01:22:00,60.0,55.0,29.92,WNW,284,1.0,5.0,85,0.00,,,0.04,,2013-05-09 05:22:00,
2013-05-09 01:32:00,60.0,55.0,29.93,WNW,286,0.0,2.0,84,0.00,,,0.04,,2013-05-09 05:32:00,
2013-05-09 01:42:00,60.0,55.0,29.93,WNW,286,0.0,2.0,84,0.00,,,0.04,,2013-05-09 05:42:00,
2013-05-09 01:51:00,60.0,55.0,29.92,WNW,286,1.0,3.0,84,0.00,,,0.04,,2013-05-09 05:51:00,
2013-05-09 02:02:00,60.0,55.0,29.92,WNW,286,0.0,3.0,84,0.00,,,0.04,,2013-05-09 06:02:00,
2013-05-09 02:12:00,60.0,55.0,29.92,WNW,286,0.0,3.0,84,0.00,,,0.04,,2013-05-09 06:12:00,
2013-05-09 02:22:00,59.0,55.0,29.92,NNE,22,0.0,2.0,86,0.00,,,0.04,,2013-05-09 06:22:00,
2013-05-09 02:32:00,59.0,54.0,29.91,NNE,23,0.0,0.0,85,0.00,,,0.04,,2013-05-09 06:32:00,
2013-05-09 02:42:00,59.0,54.0,29.91,NNE,23,0.0,0.0,85,0.00,,,0.04,,2013-05-09 06:42:00,
2013-05-09 02:52:00,58.0,54.0,29.91,NNW,331,0.0,1.0,86,0.00,,,0.04,,2013-05-09 06:52:00,
2013-05-09 03:01:00,58.0,54.0,29.91,NNW,331,0.0,0.0,87,0.00,,,0.04,,2013-05-09 07:01:00,
2013-05-09 03:12:00,58.0,54.0,29.91,NNW,331,0.0,0.0,87,0.00,,,0.04,,2013-05-09 07:12:00,
2013-05-09 03:21:00,57.0,53.0,29.91,NNW,331,0.0,1.0,88,0.00,,,0.04,,2013-05-09 07:21:00,
2013-05-09 03:32:00,57.0,53.0,29.91,NNW,331,0.0,0.0,88,0.00,,,0.04,,2013-05-09 07:32:00,
2013-05-09 03:42:00,57.0,53.0,29.91,NNW,331,0.0,0.0,88,0.00,,,0.04,,2013-05-09 07:42:00,
2013-05-09 03:52:00,57.0,54.0,29.90,NNW,331,0.0,0.0,89,0.00,,,0.04,,2013-05-09 07:52:00,
2013-05-09 04:02:00,57.0,54.0,29.90,NNW,331,0.0,0.0,90,0.00,,,0.04,,2013-05-09 08:02:00,
2013-05-09 04:11:00,57.0,54.0,29.90,NNW,331,0.0,0.0,90,0.00,,,0.04,,2013-05-09 08:11:00,
2013-05-09 04:21:00,57.0,54.0,29.90,ENE,65,0.0,1.0,90,0.00,,,0.04,,2013-05-09 08:21:00,
2013-05-09 04:32:00,56.0,53.0,29.91,ENE,71,0.0,2.0,89,0.00,,,0.04,,2013-05-09 08:32:00,
2013-05-09 04:42:00,56.0,53.0,29.91,ENE,71,0.0,2.0,89,0.00,,,0.04,,2013-05-09 08:42:00,
2013-05-09 04:52:00,56.0,53.0,29.91,ENE,74,0.0,1.0,90,0.00,,,0.04,,2013-05-09 08:52:00,
2013-05-09 05:02:00,55.0,52.0,29.91,SE,129,0.0,0.0,90,0.00,,,0.04,,2013-05-09 09:02:00,
2013-05-09 05:11:00,55.0,52.0,29.91,SE,129,0.0,0.0,90,0.00,,,0.04,,2013-05-09 09:11:00,
2013-05-09 05:21:00,55.0,52.0,29.92,SE,129,0.0,2.0,91,0.00,,,0.04,,2013-05-09 09:21:00,
2013-05-09 05:32:00,55.0,53.0,29.91,SE,129,0.0,0.0,92,0.00,,,0.04,,2013-05-09 09:32:00,
2013-05-09 05:43:00,55.0,53.0,29.91,SE,129,0.0,0.0,92,0.00,,,0.04,,2013-05-09 09:43:00,
2013-05-09 05:53:00,55.0,52.0,29.92,SE,129,0.0,0.0,91,0.00,,,0.04,,2013-05-09 09:53:00,
2013-05-09 06:02:00,55.0,52.0,29.92,SE,129,0.0,1.0,91,0.00,,,0.04,,2013-05-09 10:02:00,
2013-05-09 06:12:00,55.0,52.0,29.92,SE,129,0.0,1.0,91,0.00,,,0.04,,2013-05-09 10:12:00,
2013-05-09 06:23:00,55.0,52.0,29.92,SE,129,0.0,2.0,90,0.00,,,0.04,,2013-05-09 10:23:00,
2013-05-09 06:33:00,56.0,52.0,29.93,SW,229,1.0,4.0,88,0.00,,,0.04,,2013-05-09 10:33:00,
2013-05-09 06:42:00,56.0,52.0,29.93,SW,229,1.0,4.0,88,0.00,,,0.04,,2013-05-09 10:42:00,
2013-05-09 06:53:00,57.0,53.0,29.93,West,267,0.0,2.0,87,0.00,,,0.04,,2013-05-09 10:53:00,
2013-05-09 07:02:00,57.0,53.0,29.93,West,267,0.0,2.0,86,0.00,,,0.04,,2013-05-09 11:02:00,
2013-05-09 07:12:00,57.0,53.0,29.93,West,267,0.0,2.0,86,0.00,,,0.04,,2013-05-09 11:12:00,
2013-05-09 07:22:00,57.0,53.0,29.93,West,267,0.0,2.0,86,0.00,,,0.04,,2013-05-09 11:22:00,
2013-05-09 07:32:00,57.0,53.0,29.93,West,267,0.0,2.0,86,0.00,,,0.04,,2013-05-09 11:32:00,
2013-05-09 07:42:00,57.0,53.0,29.93,West,267,0.0,2.0,86,0.00,,,0.04,,2013-05-09 11:42:00,
2013-05-09 07:52:00,58.0,54.0,29.93,West,267,0.0,1.0,86,0.00,,,0.04,,2013-05-09 11:52:00,
2013-05-09 08:01:00,59.0,54.0,29.93,West,267,0.0,1.0,85,0.00,,,0.04,,2013-05-09 12:01:00,
2013-05-09 08:11:00,59.0,54.0,29.93,West,267,0.0,1.0,85,0.00,,,0.04,,2013-05-09 12:11:00,
2013-05-09 08:22:00,60.0,55.0,29.94,West,267,0.0,2.0,85,0.00,,,0.04,,2013-05-09 12:22:00,
2013-05-09 08:32:00,61.0,56.0,29.94,WNW,286,1.0,4.0,85,0.00,,,0.04,,2013-05-09 12:32:00,
2013-05-09 08:42:00,61.0,56.0,29.94,WNW,286,1.0,4.0,85,0.00,,,0.04,,2013-05-09 12:42:00,
2013-05-09 08:52:00,62.0,57.0,29.95,WNW,292,3.0,5.0,83,0.00,,,0.04,,2013-05-09 12:52:00,
2013-05-09 09:01:00,63.0,57.0,29.94,WNW,295,2.0,6.0,82,0.00,,,0.04,,2013-05-09 13:01:00,
2013-05-09 09:12:00,63.0,57.0,29.94,WNW,295,2.0,6.0,82,0.00,,,0.04,,2013-05-09 13:12:00,
2013-05-09 09:22:00,64.0,58.0,29.95,WNW,296,1.0,6.0,80,0.00,,,0.04,,2013-05-09 13:22:00,
2013-05-09 09:32:00,65.0,58.0,29.95,WNW,294,4.0,7.0,78,0.00,,,0.04,,2013-05-09 13:32:00,
2013-05-09 09:42:00,65.0,58.0,29.95,WNW,294,4.0,7.0,78,0.00,,,0.04,,2013-05-09 13:42:00,
2013-05-09 09:52:00,67.0,58.0,29.95,WNW,290,2.0,6.0,73,0.00,,,0.04,,2013-05-09 13:52:00,
2013-05-09 10:02:00,68.0,57.0,29.95,WNW,286,3.0,6.0,67,0.00,,,0.04,,2013-05-09 14:02:00,
2013-05-09 10:11:00,68.0,57.0,29.95,WNW,286,3.0,6.0,67,0.00,,,0.04,,2013-05-09 14:11:00,
2013-05-09 10:22:00,70.0,57.0,29.94,WNW,287,1.0,5.0,63,0.00,,,0.04,,2013-05-09 14:22:00,
2013-05-09 10:32:00,71.0,57.0,29.94,WNW,288,2.0,6.0,61,0.00,,,0.04,,2013-05-09 14:32:00,
2013-05-09 10:42:00,71.0,57.0,29.94,WNW,288,2.0,6.0,61,0.00,,,0.04,,2013-05-09 14:42:00,
2013-05-09 10:52:00,72.0,56.0,29.94,WNW,289,2.0,5.0,58,0.00,,,0.04,,2013-05-09 14:52:00,
2013-05-09 11:01:00,73.0,55.0,29.94,West,273,2.0,8.0,54,0.00,,,0.04,,2013-05-09 15:01:00,
2013-05-09 11:11:00,73.0,55.0,29.94,West,273,2.0,8.0,54,0.00,,,0.04,,2013-05-09 15:11:00,
2013-05-09 11:22:00,73.0,54.0,29.94,WNW,294,0.0,5.0,52,0.00,,,0.04,,2013-05-09 15:22:00,
2013-05-09 11:33:00,75.0,56.0,29.95,WNW,286,3.0,6.0,51,0.00,,,0.04,,2013-05-09 15:33:00,
2013-05-09 11:43:00,75.0,56.0,29.95,WNW,286,3.0,6.0,51,0.00,,,0.04,,2013-05-09 15:43:00,
2013-05-09 11:53:00,75.0,53.0,29.95,WSW,237,1.0,4.0,47,0.00,,,0.04,,2013-05-09 15:53:00,
2013-05-09 12:03:00,75.0,53.0,29.95,SW,232,0.0,5.0,47,0.00,,,0.04,,2013-05-09 16:03:00,
2013-05-09 12:12:00,75.0,53.0,29.95,SW,232,0.0,5.0,47,0.00,,,0.04,,2013-05-09 16:12:00,
2013-05-09 12:23:00,76.0,53.0,29.95,SSW,193,2.0,6.0,45,0.00,,,0.04,,2013-05-09 16:23:00,
2013-05-09 12:33:00,77.0,53.0,29.95,WNW,298,0.0,5.0,43,0.00,,,0.04,,2013-05-09 16:33:00,
2013-05-09 12:42:00,77.0,53.0,29.95,WNW,298,0.0,5.0,43,0.00,,,0.04,,2013-05-09 16:42:00,
2013-05-09 12:53:00,77.0,51.0,29.95,WNW,296,1.0,6.0,40,0.00,,,0.04,,2013-05-09 16:53:00,
2013-05-09 13:02:00,77.0,48.0,29.95,WNW,286,3.0,6.0,36,0.00,,,0.04,,2013-05-09 17:02:00,
2013-05-09 13:12:00,77.0,48.0,29.95,WNW,286,3.0,6.0,36,0.00,,,0.04,,2013-05-09 17:12:00,
2013-05-09 13:22:00,78.0,48.0,29.94,WNW,285,2.0,10.0,35,0.00,,,0.04,,2013-05-09 17:22:00,
2013-05-09 13:32:00,79.0,46.0,29.94,WNW,288,2.0,10.0,31,0.00,,,0.04,,2013-05-09 17:32:00,
2013-05-09 13:42:00,79.0,46.0,29.94,WNW,288,2.0,10.0,31,0.00,,,0.04,,2013-05-09 17:42:00,
2013-05-09 13:55:00,80.0,45.0,29.93,SW,235,4.0,9.0,29,0.00,,,0.04,,2013-05-09 17:55:00,
2013-05-09 14:01:00,81.0,46.0,29.93,SW,227,2.0,8.0,29,0.00,,,0.04,,2013-05-09 18:01:00,
2013-05-09 14:12:00,81.0,46.0,29.93,SW,227,2.0,8.0,29,0.00,,,0.04,,2013-05-09 18:12:00,
2013-05-09 14:22:00,82.0,47.0,29.93,SW,232,4.0,8.0,30,0.00,,,0.04,,2013-05-09 18:22:00,
2013-05-09 14:32:00,81.0,46.0,29.92,WNW,298,5.0,10.0,29,0.00,,,0.04,,2013-05-09 18:32:00,
2013-05-09 14:42:00,81.0,46.0,29.92,WNW,298,5.0,10.0,29,0.00,,,0.04,,2013-05-09 18:42:00,
2013-05-09 14:52:00,81.0,46.0,29.91,SW,215,2.0,9.0,29,0.00,,,0.04,,2013-05-09 18:52:00,
2013-05-09 15:01:00,82.0,48.0,29.91,West,275,2.0,9.0,31,0.00,,,0.04,,2013-05-09 19:01:00,
2013-05-09 15:12:00,82.0,48.0,29.91,West,275,2.0,9.0,31,0.00,,,0.04,,2013-05-09 19:12:00,
2013-05-09 15:21:00,81.0,49.0,29.91,WNW,294,1.0,9.0,33,0.00,,,0.04,,2013-05-09 19:21:00,
2013-05-09 15:32:00,80.0,50.0,29.91,WSW,252,1.0,6.0,35,0.00,,,0.04,,2013-05-09 19:32:00,
2013-05-09 15:42:00,80.0,50.0,29.91,WSW,252,1.0,6.0,35,0.00,,,0.04,,2013-05-09 19:42:00,
2013-05-09 15:52:00,79.0,50.0,29.91,WSW,237,1.0,7.0,37,0.00,,,0.04,,2013-05-09 19:52:00,
2013-05-09 16:01:00,81.0,51.0,29.90,WSW,242,3.0,9.0,35,0.00,,,0.04,,2013-05-09 20:01:00,
2013-05-09 16:11:00,81.0,51.0,29.90,WSW,242,3.0,9.0,35,0.00,,,0.04,,2013-05-09 20:11:00,
2013-05-09 16:22:00,81.0,50.0,29.89,SSW,201,3.0,6.0,34,0.00,,,0.04,,2013-05-09 20:22:00,
2013-05-09 16:32:00,81.0,50.0,29.89,SSW,201,3.0,6.0,34,0.00,,,0.04,,2013-05-09 20:32:00,
2013-05-09 16:42:00,81.0,49.0,29.88,West,263,1.0,6.0,33,0.00,,,0.04,,2013-05-09 20:42:00,
2013-05-09 16:52:00,81.0,49.0,29.88,West,263,1.0,6.0,33,0.00,,,0.04,,2013-05-09 20:52:00,
2013-05-09 17:02:00,80.0,51.0,29.88,South,179,3.0,10.0,36,0.00,,,0.04,,2013-05-09 21:02:00,
2013-05-09 17:12:00,80.0,51.0,29.88,South,179,3.0,10.0,36,0.00,,,0.04,,2013-05-09 21:12:00,
2013-05-09 17:22:00,78.0,49.0,29.87,WSW,244,3.0,8.0,36,0.00,,,0.04,,2013-05-09 21:22:00,
2013-05-09 17:32:00,78.0,50.0,29.88,SSW,209,2.0,8.0,37,0.00,,,0.04,,2013-05-09 21:32:00,
2013-05-09 17:43:00,78.0,50.0,29.88,South,191,3.0,6.0,38,0.00,,,0.04,,2013-05-09 21:43:00,
2013-05-09 17:53:00,78.0,50.0,29.88,South,191,3.0,6.0,38,0.00,,,0.04,,2013-05-09 21:53:00,
2013-05-09 18:03:00,78.0,50.0,29.88,South,189,2.0,7.0,38,0.00,,,0.04,,2013-05-09 22:03:00,
2013-05-09 18:13:00,77.0,51.0,29.88,West,267,3.0,8.0,41,0.00,,,0.04,,2013-05-09 22:13:00,
2013-05-09 18:23:00,77.0,51.0,29.88,West,267,3.0,8.0,41,0.00,,,0.04,,2013-05-09 22:23:00,
2013-05-09 18:33:00,75.0,53.0,29.89,WNW,288,3.0,7.0,47,0.00,,,0.04,,2013-05-09 22:33:00,
2013-05-09 18:42:00,75.0,56.0,29.89,WNW,298,3.0,5.0,51,0.00,,,0.04,,2013-05-09 22:42:00,
2013-05-09 18:52:00,75.0,56.0,29.89,WNW,298,3.0,5.0,51,0.00,,,0.04,,2013-05-09 22:52:00,
2013-05-09 19:02:00,74.0,57.0,29.89,WNW,290,2.0,7.0,55,0.00,,,0.04,,2013-05-09 23:02:00,
2013-05-09 19:12:00,74.0,57.0,29.89,WNW,290,2.0,7.0,55,0.00,,,0.04,,2013-05-09 23:12:00,
2013-05-09 19:22:00,74.0,57.0,29.89,WNW,290,2.0,7.0,55,0.00,,,0.04,,2013-05-09 23:22:00,
2013-05-09 19:32:00,73.0,57.0,29.89,WNW,292,1.0,4.0,58,0.00,,,0.04,,2013-05-09 23:32:00,
2013-05-09 19:42:00,73.0,57.0,29.89,WNW,292,1.0,4.0,58,0.00,,,0.04,,2013-05-09 23:42:00,
2013-05-09 19:52:00,73.0,60.0,29.89,West,273,5.0,12.0,63,0.00,,,0.04,,2013-05-09 23:52:00,
2013-05-09 20:01:00,72.0,57.0,29.88,West,280,4.0,9.0,60,0.00,,,0.04,,2013-05-10 00:01:00,
2013-05-09 20:11:00,71.0,55.0,29.88,West,267,3.0,9.0,57,0.00,,,0.04,,2013-05-10 00:11:00,
2013-05-09 20:22:00,71.0,55.0,29.88,West,267,3.0,9.0,57,0.00,,,0.04,,2013-05-10 00:22:00,
2013-05-09 20:32:00,71.0,55.0,29.88,WNW,287,4.0,9.0,57,0.00,,,0.04,,2013-05-10 00:32:00,
2013-05-09 20:42:00,70.0,55.0,29.87,WNW,286,4.0,8.0,59,0.00,,,0.04,,2013-05-10 00:42:00,
2013-05-09 20:52:00,70.0,55.0,29.87,WNW,286,4.0,8.0,59,0.00,,,0.04,,2013-05-10 00:52:00,
2013-05-09 21:01:00,69.0,55.0,29.87,WNW,284,2.0,6.0,61,0.00,,,0.04,,2013-05-10 01:01:00,
2013-05-09 21:11:00,69.0,55.0,29.87,WNW,284,2.0,6.0,61,0.00,,,0.04,,2013-05-10 01:11:00,
2013-05-09 21:22:00,69.0,55.0,29.87,WNW,284,2.0,6.0,61,0.00,,,0.04,,2013-05-10 01:22:00,
2013-05-09 21:32:00,69.0,55.0,29.87,WNW,284,2.0,6.0,61,0.00,,,0.04,,2013-05-10 01:32:00,
2013-05-09 21:42:00,67.0,55.0,29.89,SSW,210,0.0,6.0,66,0.00,,,0.02,,2013-05-10 01:42:00,
2013-05-09 21:52:00,67.0,55.0,29.89,SSW,210,0.0,6.0,66,0.00,,,0.02,,2013-05-10 01:52:00,
2013-05-09 22:02:00,67.0,55.0,29.89,SSW,210,0.0,6.0,66,0.00,,,0.02,,2013-05-10 02:02:00,
2013-05-09 22:11:00,67.0,55.0,29.89,SSW,210,0.0,6.0,66,0.00,,,0.02,,2013-05-10 02:11:00,
2013-05-09 22:21:00,67.0,56.0,29.89,SSW,195,0.0,3.0,69,0.00,,,0.00,,2013-05-10 02:21:00,
2013-05-09 22:32:00,67.0,57.0,29.89,SSW,198,0.0,1.0,70,0.00,,,0.00,,2013-05-10 02:32:00,
2013-05-09 22:42:00,66.0,58.0,29.89,SSW,204,0.0,3.0,75,0.00,,,0.00,,2013-05-10 02:42:00,
2013-05-09 22:52:00,66.0,58.0,29.89,SSW,204,0.0,3.0,75,0.00,,,0.00,,2013-05-10 02:52:00,
2013-05-09 23:01:00,65.0,58.0,29.88,SSE,167,0.0,1.0,77,0.00,,,0.00,,2013-05-10 03:01:00,
2013-05-09 23:11:00,65.0,58.0,29.88,SSE,167,0.0,1.0,77,0.00,,,0.00,,2013-05-10 03:11:00,
2013-05-09 23:22:00,65.0,58.0,29.89,SE,137,0.0,3.0,78,0.00,,,0.00,,2013-05-10 03:22:00,
2013-05-09 23:33:00,64.0,58.0,29.89,South,177,0.0,3.0,82,0.00,,,0.00,,2013-05-10 03:33:00,
2013-05-09 23:43:00,64.0,58.0,29.89,South,177,0.0,3.0,82,0.00,,,0.00,,2013-05-10 03:43:00,
2013-05-09 23:53:00,64.0,59.0,29.88,SSE,158,1.0,5.0,84,0.00,,,0.00,,2013-05-10 03:53:00,